< < Back
Terminal Aerodrome Forecast


Current Version              Previous Versions:   1  2  3  4  5  6  7  8  9  

Terminal Aerodrome Forecast

527
FTUS42 KMLB 292332
TAFMCO
TAF
KMCO 292332Z 3000/3024 07009KT P6SM SKC
     FM300200 05004KT P6SM SKC
     FM301400 27006KT P6SM FEW050 SCT250=



Latest METAR

675
SAUS70 KWBC 300200 RRF
MTRMCO
METAR KMCO 300153Z 07006KT 10SM CLR 12/02 A3034 RMK AO2 SLP273
T01220017


USA.gov is the U.S. government's official web portal to all federal, state and local government web resources and services.